sensor_id;sensor_type;location;lat;lon;timestamp;temperature;humidity
10443;DHT22;5269;51.146;16.986;2023-02-01T00:01:24;2.60;99.90
10443;DHT22;5269;51.146;16.986;2023-02-01T00:03:51;2.80;99.90
10443;DHT22;5269;51.146;16.986;2023-02-01T00:06:18;2.70;99.90
10443;DHT22;5269;51.146;16.986;2023-02-01T00:08:45;2.70;99.90
10443;DHT22;5269;51.146;16.986;2023-02-01T00:11:12;2.70;99.90
10443;DHT22;5269;51.146;16.986;2023-02-01T00:13:42;2.70;99.90
10443;DHT22;5269;51.146;16.986;2023-02-01T00:16:10;2.80;99.90
10443;DHT22;5269;51.146;16.986;2023-02-01T00:18:38;2.90;99.90
10443;DHT22;5269;51.146;16.986;2023-02-01T00:21:05;2.90;99.90
10443;DHT22;5269;51.146;16.986;2023-02-01T00:23:33;2.80;99.90
10443;DHT22;5269;51.146;16.986;2023-02-01T00:26:00;2.90;99.90
10443;DHT22;5269;51.146;16.986;2023-02-01T00:28:28;2.90;99.90
10443;DHT22;5269;51.146;16.986;2023-02-01T00:30:59;3.00;99.90
10443;DHT22;5269;51.146;16.986;2023-02-01T00:33:27;3.00;99.90
10443;DHT22;5269;51.146;16.986;2023-02-01T00:35:56;3.00;99.90
10443;DHT22;5269;51.146;16.986;2023-02-01T00:38:24;3.00;99.90
10443;DHT22;5269;51.146;16.986;2023-02-01T00:40:51;3.00;99.90
10443;DHT22;5269;51.146;16.986;2023-02-01T00:43:18;3.10;99.90
10443;DHT22;5269;51.146;16.986;2023-02-01T00:45:45;3.10;99.90
10443;DHT22;5269;51.146;16.986;2023-02-01T00:48:28;3.00;99.90
10443;DHT22;5269;51.146;16.986;2023-02-01T00:50:59;3.00;99.90
10443;DHT22;5269;51.146;16.986;2023-02-01T00:53:26;3.00;99.90
10443;DHT22;5269;51.146;16.986;2023-02-01T00:55:53;3.00;99.90
10443;DHT22;5269;51.146;16.986;2023-02-01T00:58:20;3.00;99.90
10443;DHT22;5269;51.146;16.986;2023-02-01T01:00:49;3.00;99.90
10443;DHT22;5269;51.146;16.986;2023-02-01T01:03:17;3.00;99.90
10443;DHT22;5269;51.146;16.986;2023-02-01T01:05:44;3.00;99.90
10443;DHT22;5269;51.146;16.986;2023-02-01T01:08:12;3.10;99.90
10443;DHT22;5269;51.146;16.986;2023-02-01T01:10:39;3.10;99.90
10443;DHT22;5269;51.146;16.986;2023-02-01T01:13:07;3.30;99.90
10443;DHT22;5269;51.146;16.986;2023-02-01T01:15:36;3.40;99.90
10443;DHT22;5269;51.146;16.986;2023-02-01T01:18:04;3.50;99.90
10443;DHT22;5269;51.146;16.986;2023-02-01T01:20:34;3.70;99.90
10443;DHT22;5269;51.146;16.986;2023-02-01T01:23:02;3.60;99.90
10443;DHT22;5269;51.146;16.986;2023-02-01T01:25:30;3.50;99.90
10443;DHT22;5269;51.146;16.986;2023-02-01T01:27:57;3.50;99.90
10443;DHT22;5269;51.146;16.986;2023-02-01T01:30:24;3.50;99.90
10443;DHT22;5269;51.146;16.986;2023-02-01T01:32:52;3.60;99.90
10443;DHT22;5269;51.146;16.986;2023-02-01T01:35:19;3.50;99.90
10443;DHT22;5269;51.146;16.986;2023-02-01T01:37:47;3.50;99.90
10443;DHT22;5269;51.146;16.986;2023-02-01T01:40:14;3.80;99.90
10443;DHT22;5269;51.146;16.986;2023-02-01T01:42:42;3.80;99.90
10443;DHT22;5269;51.146;16.986;2023-02-01T01:45:20;3.50;99.90
10443;DHT22;5269;51.146;16.986;2023-02-01T01:47:50;3.30;99.90
10443;DHT22;5269;51.146;16.986;2023-02-01T01:50:19;3.00;99.90
10443;DHT22;5269;51.146;16.986;2023-02-01T01:52:49;2.90;99.90
10443;DHT22;5269;51.146;16.986;2023-02-01T01:55:20;2.90;99.90
10443;DHT22;5269;51.146;16.986;2023-02-01T01:57:53;2.80;99.90
10443;DHT22;5269;51.146;16.986;2023-02-01T02:00:22;2.80;99.90
10443;DHT22;5269;51.146;16.986;2023-02-01T02:02:54;2.80;99.90
10443;DHT22;5269;51.146;16.986;2023-02-01T02:05:22;2.80;99.90
10443;DHT22;5269;51.146;16.986;2023-02-01T02:07:52;2.90;99.90
10443;DHT22;5269;51.146;16.986;2023-02-01T02:10:20;3.00;99.90
10443;DHT22;5269;51.146;16.986;2023-02-01T02:13:07;3.00;99.90
10443;DHT22;5269;51.146;16.986;2023-02-01T02:15:40;3.00;99.90
10443;DHT22;5269;51.146;16.986;2023-02-01T02:18:12;3.00;99.90
10443;DHT22;5269;51.146;16.986;2023-02-01T02:21:07;3.10;99.90
10443;DHT22;5269;51.146;16.986;2023-02-01T02:24:01;3.30;99.90
10443;DHT22;5269;51.146;16.986;2023-02-01T02:27:01;3.40;99.90
10443;DHT22;5269;51.146;16.986;2023-02-01T02:35:46;3.40;99.90
10443;DHT22;5269;51.146;16.986;2023-02-01T02:38:22;3.40;99.90
10443;DHT22;5269;51.146;16.986;2023-02-01T02:41:01;3.60;99.90
10443;DHT22;5269;51.146;16.986;2023-02-01T02:43:37;3.60;99.90
10443;DHT22;5269;51.146;16.986;2023-02-01T02:46:25;3.60;99.90
10443;DHT22;5269;51.146;16.986;2023-02-01T02:49:17;3.60;99.90
10443;DHT22;5269;51.146;16.986;2023-02-01T02:51:50;3.70;99.90
10443;DHT22;5269;51.146;16.986;2023-02-01T02:54:43;3.70;99.90
10443;DHT22;5269;51.146;16.986;2023-02-01T02:57:19;3.90;99.90
10443;DHT22;5269;51.146;16.986;2023-02-01T03:00:08;3.90;99.90
10443;DHT22;5269;51.146;16.986;2023-02-01T03:02:53;4.00;99.90
10443;DHT22;5269;51.146;16.986;2023-02-01T03:05:42;4.00;99.90
10443;DHT22;5269;51.146;16.986;2023-02-01T03:08:15;4.00;99.90
10443;DHT22;5269;51.146;16.986;2023-02-01T03:10:48;4.00;99.90
10443;DHT22;5269;51.146;16.986;2023-02-01T03:13:26;4.00;99.90
10443;DHT22;5269;51.146;16.986;2023-02-01T03:16:01;4.00;99.90
10443;DHT22;5269;51.146;16.986;2023-02-01T03:18:33;3.90;99.90
10443;DHT22;5269;51.146;16.986;2023-02-01T03:21:08;4.00;99.90
10443;DHT22;5269;51.146;16.986;2023-02-01T03:23:37;3.90;99.90
10443;DHT22;5269;51.146;16.986;2023-02-01T03:26:08;3.90;99.90
10443;DHT22;5269;51.146;16.986;2023-02-01T03:28:39;3.90;99.90
10443;DHT22;5269;51.146;16.986;2023-02-01T03:31:08;3.90;99.90
10443;DHT22;5269;51.146;16.986;2023-02-01T03:33:36;3.80;99.90
10443;DHT22;5269;51.146;16.986;2023-02-01T03:36:13;3.80;99.90
10443;DHT22;5269;51.146;16.986;2023-02-01T03:38:49;3.80;99.90
10443;DHT22;5269;51.146;16.986;2023-02-01T03:41:20;3.80;99.90
10443;DHT22;5269;51.146;16.986;2023-02-01T03:43:54;3.70;99.90
10443;DHT22;5269;51.146;16.986;2023-02-01T03:46:27;3.70;99.90
10443;DHT22;5269;51.146;16.986;2023-02-01T03:49:00;3.80;99.90
10443;DHT22;5269;51.146;16.986;2023-02-01T03:51:28;3.80;99.90
10443;DHT22;5269;51.146;16.986;2023-02-01T03:53:59;3.90;99.90
10443;DHT22;5269;51.146;16.986;2023-02-01T03:56:30;3.90;99.90
10443;DHT22;5269;51.146;16.986;2023-02-01T03:58:58;3.80;99.90
10443;DHT22;5269;51.146;16.986;2023-02-01T04:01:27;3.80;99.90
10443;DHT22;5269;51.146;16.986;2023-02-01T04:03:54;3.90;99.90
10443;DHT22;5269;51.146;16.986;2023-02-01T04:06:21;3.90;99.90
10443;DHT22;5269;51.146;16.986;2023-02-01T04:08:49;3.90;99.90
10443;DHT22;5269;51.146;16.986;2023-02-01T04:11:18;3.90;99.90
10443;DHT22;5269;51.146;16.986;2023-02-01T04:13:45;3.90;99.90
10443;DHT22;5269;51.146;16.986;2023-02-01T04:16:12;3.90;99.90
10443;DHT22;5269;51.146;16.986;2023-02-01T04:18:39;4.00;99.90
10443;DHT22;5269;51.146;16.986;2023-02-01T04:21:06;3.80;99.90
10443;DHT22;5269;51.146;16.986;2023-02-01T04:23:33;3.90;99.90
10443;DHT22;5269;51.146;16.986;2023-02-01T04:26:03;3.80;99.90
10443;DHT22;5269;51.146;16.986;2023-02-01T04:28:31;3.80;99.90
10443;DHT22;5269;51.146;16.986;2023-02-01T04:30:58;3.70;99.90
10443;DHT22;5269;51.146;16.986;2023-02-01T04:33:25;3.60;99.90
10443;DHT22;5269;51.146;16.986;2023-02-01T04:35:52;3.70;99.90
10443;DHT22;5269;51.146;16.986;2023-02-01T04:38:19;3.70;99.90
10443;DHT22;5269;51.146;16.986;2023-02-01T04:40:54;3.70;99.90
10443;DHT22;5269;51.146;16.986;2023-02-01T04:43:21;3.70;99.90
10443;DHT22;5269;51.146;16.986;2023-02-01T04:45:50;3.70;99.90
10443;DHT22;5269;51.146;16.986;2023-02-01T04:48:18;3.90;99.90
10443;DHT22;5269;51.146;16.986;2023-02-01T04:50:46;3.90;99.90
10443;DHT22;5269;51.146;16.986;2023-02-01T04:53:13;4.00;99.90
10443;DHT22;5269;51.146;16.986;2023-02-01T04:55:41;3.90;99.90
10443;DHT22;5269;51.146;16.986;2023-02-01T04:58:08;4.00;99.90
10443;DHT22;5269;51.146;16.986;2023-02-01T05:00:35;4.10;99.90
10443;DHT22;5269;51.146;16.986;2023-02-01T05:03:03;4.10;99.90
10443;DHT22;5269;51.146;16.986;2023-02-01T05:05:30;4.10;99.90
10443;DHT22;5269;51.146;16.986;2023-02-01T05:07:58;4.20;99.90
10443;DHT22;5269;51.146;16.986;2023-02-01T05:10:25;4.20;99.90
10443;DHT22;5269;51.146;16.986;2023-02-01T05:12:52;4.30;99.90
10443;DHT22;5269;51.146;16.986;2023-02-01T05:15:36;4.30;99.90
10443;DHT22;5269;51.146;16.986;2023-02-01T05:18:04;4.40;99.90
10443;DHT22;5269;51.146;16.986;2023-02-01T05:20:32;4.30;99.90
10443;DHT22;5269;51.146;16.986;2023-02-01T05:22:59;4.40;99.90
10443;DHT22;5269;51.146;16.986;2023-02-01T05:25:28;4.40;99.90
10443;DHT22;5269;51.146;16.986;2023-02-01T05:27:55;4.50;99.90
10443;DHT22;5269;51.146;16.986;2023-02-01T05:30:22;4.40;99.90
10443;DHT22;5269;51.146;16.986;2023-02-01T05:32:50;4.50;99.90
10443;DHT22;5269;51.146;16.986;2023-02-01T05:35:18;4.50;99.90
10443;DHT22;5269;51.146;16.986;2023-02-01T05:37:45;4.50;99.90
10443;DHT22;5269;51.146;16.986;2023-02-01T05:40:12;4.40;99.90
10443;DHT22;5269;51.146;16.986;2023-02-01T05:42:39;4.40;99.90
10443;DHT22;5269;51.146;16.986;2023-02-01T05:45:07;4.40;99.90
10443;DHT22;5269;51.146;16.986;2023-02-01T05:47:34;4.40;99.90
10443;DHT22;5269;51.146;16.986;2023-02-01T05:50:02;4.30;99.90
10443;DHT22;5269;51.146;16.986;2023-02-01T05:52:30;4.30;99.90
10443;DHT22;5269;51.146;16.986;2023-02-01T05:54:57;4.30;99.90
10443;DHT22;5269;51.146;16.986;2023-02-01T05:57:24;4.40;99.90
10443;DHT22;5269;51.146;16.986;2023-02-01T05:59:51;4.30;99.90
10443;DHT22;5269;51.146;16.986;2023-02-01T06:02:18;4.30;99.90
10443;DHT22;5269;51.146;16.986;2023-02-01T06:04:45;4.40;99.90
10443;DHT22;5269;51.146;16.986;2023-02-01T06:07:12;4.40;99.90
10443;DHT22;5269;51.146;16.986;2023-02-01T06:09:41;4.50;99.90
10443;DHT22;5269;51.146;16.986;2023-02-01T06:12:08;4.50;99.90
10443;DHT22;5269;51.146;16.986;2023-02-01T06:14:37;4.60;99.90
10443;DHT22;5269;51.146;16.986;2023-02-01T06:17:04;4.60;99.90
10443;DHT22;5269;51.146;16.986;2023-02-01T06:19:32;4.60;99.90
10443;DHT22;5269;51.146;16.986;2023-02-01T06:21:59;4.60;99.90
10443;DHT22;5269;51.146;16.986;2023-02-01T06:24:26;4.60;99.90
10443;DHT22;5269;51.146;16.986;2023-02-01T06:26:54;4.60;99.90
10443;DHT22;5269;51.146;16.986;2023-02-01T06:29:21;4.60;99.90
10443;DHT22;5269;51.146;16.986;2023-02-01T06:31:52;4.60;99.90
10443;DHT22;5269;51.146;16.986;2023-02-01T06:34:20;4.60;99.90
10443;DHT22;5269;51.146;16.986;2023-02-01T06:36:48;4.60;99.90
10443;DHT22;5269;51.146;16.986;2023-02-01T06:39:15;4.60;99.90
10443;DHT22;5269;51.146;16.986;2023-02-01T06:41:44;4.70;99.90
10443;DHT22;5269;51.146;16.986;2023-02-01T06:44:13;4.70;99.90
10443;DHT22;5269;51.146;16.986;2023-02-01T06:46:41;4.80;99.90
10443;DHT22;5269;51.146;16.986;2023-02-01T06:49:29;4.70;99.90
10443;DHT22;5269;51.146;16.986;2023-02-01T06:51:58;4.80;99.90
10443;DHT22;5269;51.146;16.986;2023-02-01T06:54:28;4.80;99.90
10443;DHT22;5269;51.146;16.986;2023-02-01T06:56:59;4.70;99.90
10443;DHT22;5269;51.146;16.986;2023-02-01T06:59:41;4.70;99.90
10443;DHT22;5269;51.146;16.986;2023-02-01T07:02:25;4.80;99.90
10443;DHT22;5269;51.146;16.986;2023-02-01T07:04:56;4.70;99.90
10443;DHT22;5269;51.146;16.986;2023-02-01T07:07:24;4.80;1.00
10443;DHT22;5269;51.146;16.986;2023-02-01T07:09:51;4.80;11.50
10443;DHT22;5269;51.146;16.986;2023-02-01T07:12:21;4.80;99.90
10443;DHT22;5269;51.146;16.986;2023-02-01T07:14:49;4.80;1.00
10443;DHT22;5269;51.146;16.986;2023-02-01T07:17:16;4.80;1.00
10443;DHT22;5269;51.146;16.986;2023-02-01T07:19:46;4.80;99.90
10443;DHT22;5269;51.146;16.986;2023-02-01T07:22:13;4.80;99.90
10443;DHT22;5269;51.146;16.986;2023-02-01T07:24:42;4.70;99.90
10443;DHT22;5269;51.146;16.986;2023-02-01T07:27:09;4.70;99.90
10443;DHT22;5269;51.146;16.986;2023-02-01T07:29:36;4.70;1.00
10443;DHT22;5269;51.146;16.986;2023-02-01T07:32:07;4.80;1.00
10443;DHT22;5269;51.146;16.986;2023-02-01T07:34:37;4.80;1.00
10443;DHT22;5269;51.146;16.986;2023-02-01T07:37:06;4.80;1.00
10443;DHT22;5269;51.146;16.986;2023-02-01T07:39:34;4.70;99.90
10443;DHT22;5269;51.146;16.986;2023-02-01T07:42:02;4.80;1.00
10443;DHT22;5269;51.146;16.986;2023-02-01T07:44:30;4.70;99.90
10443;DHT22;5269;51.146;16.986;2023-02-01T07:46:58;4.70;99.90
10443;DHT22;5269;51.146;16.986;2023-02-01T07:49:27;4.70;99.90
10443;DHT22;5269;51.146;16.986;2023-02-01T07:51:56;4.70;99.90
10443;DHT22;5269;51.146;16.986;2023-02-01T07:54:23;4.80;99.90
10443;DHT22;5269;51.146;16.986;2023-02-01T07:56:50;4.80;99.90
10443;DHT22;5269;51.146;16.986;2023-02-01T07:59:23;4.80;37.30
10443;DHT22;5269;51.146;16.986;2023-02-01T08:01:50;4.80;99.90
10443;DHT22;5269;51.146;16.986;2023-02-01T08:04:17;4.80;1.00
10443;DHT22;5269;51.146;16.986;2023-02-01T08:06:46;4.70;1.00
10443;DHT22;5269;51.146;16.986;2023-02-01T08:09:13;4.80;1.00
10443;DHT22;5269;51.146;16.986;2023-02-01T08:11:40;4.70;1.00
10443;DHT22;5269;51.146;16.986;2023-02-01T08:14:07;4.80;1.00
10443;DHT22;5269;51.146;16.986;2023-02-01T08:16:36;4.70;1.00
10443;DHT22;5269;51.146;16.986;2023-02-01T08:19:04;4.70;99.90
10443;DHT22;5269;51.146;16.986;2023-02-01T08:24:47;4.60;99.90
10443;DHT22;5269;51.146;16.986;2023-02-01T08:27:15;4.70;40.50
10443;DHT22;5269;51.146;16.986;2023-02-01T08:29:42;4.70;99.90
10443;DHT22;5269;51.146;16.986;2023-02-01T08:32:09;4.70;99.90
10443;DHT22;5269;51.146;16.986;2023-02-01T08:34:43;4.80;99.90
10443;DHT22;5269;51.146;16.986;2023-02-01T08:37:25;4.80;99.90
10443;DHT22;5269;51.146;16.986;2023-02-01T08:40:02;4.80;99.90
10443;DHT22;5269;51.146;16.986;2023-02-01T08:42:29;4.80;99.90
10443;DHT22;5269;51.146;16.986;2023-02-01T08:48:29;4.80;99.90
10443;DHT22;5269;51.146;16.986;2023-02-01T08:51:01;4.80;99.90
10443;DHT22;5269;51.146;16.986;2023-02-01T08:53:30;4.80;99.90
10443;DHT22;5269;51.146;16.986;2023-02-01T08:56:01;4.80;99.90
10443;DHT22;5269;51.146;16.986;2023-02-01T08:58:32;4.90;99.90
10443;DHT22;5269;51.146;16.986;2023-02-01T09:01:03;4.60;1.00
10443;DHT22;5269;51.146;16.986;2023-02-01T09:03:30;4.60;99.90
10443;DHT22;5269;51.146;16.986;2023-02-01T09:06:02;4.50;99.90
10443;DHT22;5269;51.146;16.986;2023-02-01T09:08:30;4.50;99.90
10443;DHT22;5269;51.146;16.986;2023-02-01T09:11:04;4.30;99.90
10443;DHT22;5269;51.146;16.986;2023-02-01T09:13:34;4.40;99.90
10443;DHT22;5269;51.146;16.986;2023-02-01T09:16:01;4.40;99.90
10443;DHT22;5269;51.146;16.986;2023-02-01T09:18:29;4.40;99.90
10443;DHT22;5269;51.146;16.986;2023-02-01T09:20:56;4.40;99.90
10443;DHT22;5269;51.146;16.986;2023-02-01T09:23:24;4.50;99.90
10443;DHT22;5269;51.146;16.986;2023-02-01T09:25:53;4.60;99.90
10443;DHT22;5269;51.146;16.986;2023-02-01T09:28:24;4.70;99.90
10443;DHT22;5269;51.146;16.986;2023-02-01T09:30:55;4.70;99.90
10443;DHT22;5269;51.146;16.986;2023-02-01T09:33:25;4.70;99.90
10443;DHT22;5269;51.146;16.986;2023-02-01T09:35:55;4.80;99.90
10443;DHT22;5269;51.146;16.986;2023-02-01T09:38:42;4.80;99.90
10443;DHT22;5269;51.146;16.986;2023-02-01T09:41:26;4.80;99.90
10443;DHT22;5269;51.146;16.986;2023-02-01T09:44:24;4.80;99.90
10443;DHT22;5269;51.146;16.986;2023-02-01T09:46:58;5.00;99.90
10443;DHT22;5269;51.146;16.986;2023-02-01T09:49:37;4.90;1.00
10443;DHT22;5269;51.146;16.986;2023-02-01T09:52:13;4.80;34.30
10443;DHT22;5269;51.146;16.986;2023-02-01T09:54:44;4.80;1.00
10443;DHT22;5269;51.146;16.986;2023-02-01T09:57:16;4.80;1.00
10443;DHT22;5269;51.146;16.986;2023-02-01T09:59:56;4.90;1.00
10443;DHT22;5269;51.146;16.986;2023-02-01T10:02:26;4.90;1.00
10443;DHT22;5269;51.146;16.986;2023-02-01T10:04:58;5.00;1.00
10443;DHT22;5269;51.146;16.986;2023-02-01T10:07:33;5.00;1.00
10443;DHT22;5269;51.146;16.986;2023-02-01T10:10:09;5.00;1.00
10443;DHT22;5269;51.146;16.986;2023-02-01T10:13:05;4.90;1.00
10443;DHT22;5269;51.146;16.986;2023-02-01T10:15:52;4.80;1.00
10443;DHT22;5269;51.146;16.986;2023-02-01T10:18:31;4.90;1.00
10443;DHT22;5269;51.146;16.986;2023-02-01T10:21:05;4.90;1.00
10443;DHT22;5269;51.146;16.986;2023-02-01T10:26:44;5.10;1.00
10443;DHT22;5269;51.146;16.986;2023-02-01T10:29:15;5.10;99.90
10443;DHT22;5269;51.146;16.986;2023-02-01T10:31:45;5.10;99.90
10443;DHT22;5269;51.146;16.986;2023-02-01T10:34:18;5.10;1.00
10443;DHT22;5269;51.146;16.986;2023-02-01T10:36:55;5.20;99.90
10443;DHT22;5269;51.146;16.986;2023-02-01T10:39:23;5.20;1.00
10443;DHT22;5269;51.146;16.986;2023-02-01T10:41:50;5.10;1.00
10443;DHT22;5269;51.146;16.986;2023-02-01T10:44:20;5.20;1.00
10443;DHT22;5269;51.146;16.986;2023-02-01T10:46:51;5.20;99.90
10443;DHT22;5269;51.146;16.986;2023-02-01T10:49:22;5.20;1.00
10443;DHT22;5269;51.146;16.986;2023-02-01T10:52:05;5.30;99.90
10443;DHT22;5269;51.146;16.986;2023-02-01T10:54:41;5.30;99.90
10443;DHT22;5269;51.146;16.986;2023-02-01T10:57:09;5.30;1.00
10443;DHT22;5269;51.146;16.986;2023-02-01T10:59:36;5.30;1.00
10443;DHT22;5269;51.146;16.986;2023-02-01T11:02:20;5.20;1.00
10443;DHT22;5269;51.146;16.986;2023-02-01T11:04:58;5.10;1.00
10443;DHT22;5269;51.146;16.986;2023-02-01T11:07:28;5.10;99.90
10443;DHT22;5269;51.146;16.986;2023-02-01T11:09:56;5.10;1.00
10443;DHT22;5269;51.146;16.986;2023-02-01T11:12:31;5.00;1.00
10443;DHT22;5269;51.146;16.986;2023-02-01T11:15:14;4.90;99.90
10443;DHT22;5269;51.146;16.986;2023-02-01T11:17:47;5.00;99.90
10443;DHT22;5269;51.146;16.986;2023-02-01T11:20:19;5.00;99.90
10443;DHT22;5269;51.146;16.986;2023-02-01T11:22:48;4.90;99.90
10443;DHT22;5269;51.146;16.986;2023-02-01T11:25:17;5.00;99.90
10443;DHT22;5269;51.146;16.986;2023-02-01T11:27:45;4.90;99.90
10443;DHT22;5269;51.146;16.986;2023-02-01T11:30:16;4.90;99.90
10443;DHT22;5269;51.146;16.986;2023-02-01T11:32:47;4.90;99.90
10443;DHT22;5269;51.146;16.986;2023-02-01T11:35:19;4.90;99.90
10443;DHT22;5269;51.146;16.986;2023-02-01T11:37:52;4.90;99.90
10443;DHT22;5269;51.146;16.986;2023-02-01T11:40:26;4.90;99.90
10443;DHT22;5269;51.146;16.986;2023-02-01T11:42:55;4.90;99.90
10443;DHT22;5269;51.146;16.986;2023-02-01T11:45:28;5.00;99.90
10443;DHT22;5269;51.146;16.986;2023-02-01T11:48:01;5.10;99.90
10443;DHT22;5269;51.146;16.986;2023-02-01T11:50:34;5.00;99.90
10443;DHT22;5269;51.146;16.986;2023-02-01T11:53:20;4.90;99.90
10443;DHT22;5269;51.146;16.986;2023-02-01T11:59:20;4.70;99.90
10443;DHT22;5269;51.146;16.986;2023-02-01T12:02:10;4.60;99.90
10443;DHT22;5269;51.146;16.986;2023-02-01T12:07:39;4.40;99.90
10443;DHT22;5269;51.146;16.986;2023-02-01T12:10:18;4.50;99.90
10443;DHT22;5269;51.146;16.986;2023-02-01T12:12:55;4.40;99.90
10443;DHT22;5269;51.146;16.986;2023-02-01T12:15:35;4.50;99.90
10443;DHT22;5269;51.146;16.986;2023-02-01T12:24:23;4.60;99.90
10443;DHT22;5269;51.146;16.986;2023-02-01T12:27:03;4.60;99.90
10443;DHT22;5269;51.146;16.986;2023-02-01T12:29:47;4.60;99.90
10443;DHT22;5269;51.146;16.986;2023-02-01T12:32:29;4.70;99.90
10443;DHT22;5269;51.146;16.986;2023-02-01T12:35:18;4.70;99.90
10443;DHT22;5269;51.146;16.986;2023-02-01T12:38:02;4.60;99.90
10443;DHT22;5269;51.146;16.986;2023-02-01T12:40:43;4.60;99.90
10443;DHT22;5269;51.146;16.986;2023-02-01T12:43:25;4.50;99.90
10443;DHT22;5269;51.146;16.986;2023-02-01T12:45:58;4.50;99.90
10443;DHT22;5269;51.146;16.986;2023-02-01T12:48:31;4.50;99.90
10443;DHT22;5269;51.146;16.986;2023-02-01T12:51:02;4.50;99.90
10443;DHT22;5269;51.146;16.986;2023-02-01T12:53:50;4.50;99.90
10443;DHT22;5269;51.146;16.986;2023-02-01T12:56:22;4.60;99.90
10443;DHT22;5269;51.146;16.986;2023-02-01T12:58:53;4.60;99.90
10443;DHT22;5269;51.146;16.986;2023-02-01T13:01:28;4.50;99.90
10443;DHT22;5269;51.146;16.986;2023-02-01T13:04:03;4.60;99.90
10443;DHT22;5269;51.146;16.986;2023-02-01T13:06:38;4.60;99.90
10443;DHT22;5269;51.146;16.986;2023-02-01T13:09:25;4.60;99.90
10443;DHT22;5269;51.146;16.986;2023-02-01T13:11:55;4.50;99.90
10443;DHT22;5269;51.146;16.986;2023-02-01T13:14:28;4.50;99.90
10443;DHT22;5269;51.146;16.986;2023-02-01T13:17:04;4.50;99.90
10443;DHT22;5269;51.146;16.986;2023-02-01T13:19:41;4.50;99.90
10443;DHT22;5269;51.146;16.986;2023-02-01T13:29:16;4.60;99.90
10443;DHT22;5269;51.146;16.986;2023-02-01T14:09:46;4.90;99.90
10443;DHT22;5269;51.146;16.986;2023-02-01T14:56:13;4.60;99.90
10443;DHT22;5269;51.146;16.986;2023-02-01T14:58:42;4.50;99.90
10443;DHT22;5269;51.146;16.986;2023-02-01T15:01:19;4.60;99.90
10443;DHT22;5269;51.146;16.986;2023-02-01T15:04:11;4.60;99.90
10443;DHT22;5269;51.146;16.986;2023-02-01T15:13:26;4.60;99.90
10443;DHT22;5269;51.146;16.986;2023-02-01T15:16:34;4.60;99.90
10443;DHT22;5269;51.146;16.986;2023-02-01T15:21:56;4.60;99.90
10443;DHT22;5269;51.146;16.986;2023-02-01T15:24:43;4.60;99.90
10443;DHT22;5269;51.146;16.986;2023-02-01T15:27:15;4.60;99.90
10443;DHT22;5269;51.146;16.986;2023-02-01T15:29:48;4.60;99.90
10443;DHT22;5269;51.146;16.986;2023-02-01T15:32:28;4.60;99.90
10443;DHT22;5269;51.146;16.986;2023-02-01T15:34:56;4.80;99.90
10443;DHT22;5269;51.146;16.986;2023-02-01T16:55:17;3.70;99.90
10443;DHT22;5269;51.146;16.986;2023-02-01T21:52:11;2.40;99.90
10443;DHT22;5269;51.146;16.986;2023-02-01T22:01:27;2.50;99.90
10443;DHT22;5269;51.146;16.986;2023-02-01T22:28:14;2.70;99.90
10443;DHT22;5269;51.146;16.986;2023-02-01T22:41:03;2.90;99.90
